Flight Track Log - Related Links

Times and Time Zones

All times are in EDT time to prevent confusion due to time zone crossing. See the SWA1688 flight status page for this flight to view local times or setup timezone preferences in your user account.

Time Position Orientation Groundspeed Altitude Reporting Facility
EDT Latitude Longitude Course Direction KTS MPH feet Rate Location/Type
Wed 09:31:03 PM 28.4167 -81.3000 156° South 141 162 600  Level Orlando TRACON
Wed 09:31:39 PM 28.3833 -81.2833 156° South 168 193 2,000 2,867 Climbing Orlando TRACON
Wed 09:32:33 PM 28.3500 -81.2667 156° South 196 226 4,900 1,848 Climbing Orlando TRACON
Wed 09:34:57 PM 28.5006 -81.2603 North 279 321 8,100 1,912 Climbing Jacksonville Center
Wed 09:35:57 PM 28.5842 -81.2803 348° North 296 341 11,400 3,550 Climbing Jacksonville Center
Wed 09:36:57 PM 28.6806 -81.3000 350° North 320 368 15,200 3,500 Climbing Jacksonville Center
Wed 09:37:57 PM 28.7789 -81.3197 350° North 342 394 18,400 3,050 Climbing Jacksonville Center
Wed 09:38:57 PM 28.8814 -81.3419 349° North 357 411 21,300 2,750 Climbing Jacksonville Center
Wed 09:39:57 PM 28.9903 -81.3686 348° North 381 438 23,900 2,650 Climbing Jacksonville Center
Wed 09:40:57 PM 29.1011 -81.3883 351° North 395 455 26,600 2,550 Climbing Jacksonville Center
Wed 09:41:57 PM 29.2181 -81.4031 354° North 407 468 29,000 2,100 Climbing Jacksonville Center
Wed 09:42:57 PM 29.3394 -81.4108 357° North 423 487 30,800 2,100 Climbing Jacksonville Center
Wed 09:43:57 PM 29.4731 -81.4278 354° North 430 495 33,200 5,100 Climbing Jacksonville Center
Wed 09:44:57 PM 29.5922 -81.4381 356° North 430 495 41,000 2,300 Climbing Jacksonville Center
Wed 09:45:57 PM 29.7111 -81.4314 North 424 488 37,800 -1,000 Descending Jacksonville Center
Wed 09:46:57 PM 29.8214 -81.3892 18° North 411 473 39,000 600 Climbing Jacksonville Center
Wed 09:47:57 PM 29.9336 -81.3442 19° North 411 473 39,000  Level Jacksonville Center
Wed 09:48:57 PM 30.0458 -81.3017 18° North 417 480 39,000  Level Jacksonville Center
Wed 09:49:57 PM 30.1581 -81.2589 18° North 417 480 39,000  Level Jacksonville Center
Wed 09:50:57 PM 30.2722 -81.2161 18° North 423 487 39,000  Level Jacksonville Center
Wed 09:51:57 PM 30.3822 -81.1733 19° North 423 487 39,000  Level Jacksonville Center
Wed 09:52:57 PM 30.4944 -81.1328 17° North 423 487 39,000  Level Jacksonville Center
Wed 09:53:57 PM 30.6108 -81.0894 18° North 423 487 39,000  Level Jacksonville Center
Wed 09:54:57 PM 30.7208 -81.0489 18° North 423 487 39,000  Level Jacksonville Center
Wed 09:55:57 PM 30.8308 -81.0056 19° North 418 481 39,000  Level Jacksonville Center
Wed 09:56:57 PM 30.9431 -80.9622 18° North 418 481 39,000  Level Jacksonville Center
Wed 09:57:57 PM 31.0572 -80.9208 17° North 418 481 39,000 300 Level Jacksonville Center
Wed 09:58:57 PM 31.1692 -80.8775 18° North 418 481 39,600 750 Climbing Jacksonville Center
Wed 09:59:57 PM 31.2750 -80.8361 18° North 431 496 40,500 700 Climbing Jacksonville Center
Wed 10:00:57 PM 31.4036 -80.7847 19° North 444 511 41,000 250 Climbing Jacksonville Center
Wed 10:01:57 PM 31.5094 -80.7481 16° North 448 516 41,000  Level Jacksonville Center
Wed 10:02:57 PM 31.6236 -80.7017 19° North 435 501 41,000  Level Jacksonville Center
Wed 10:03:57 PM 31.7522 -80.6522 18° North 430 495 41,000  Level Jacksonville Center
Wed 10:04:57 PM 31.8683 -80.6078 18° North 430 495 41,000  Level Jacksonville Center
Wed 10:05:57 PM 31.9719 -80.5661 19° North 436 502 41,000  Level Jacksonville Center
Wed 10:06:57 PM 32.0983 -80.5161 19° North 436 502 41,000  Level Jacksonville Center
Wed 10:07:57 PM 32.2000 -80.4767 18° North 431 496 41,000  Level Jacksonville Center
Wed 10:08:57 PM 32.3181 -80.4294 19° North 431 496 41,000  Level Jacksonville Center
Wed 10:09:57 PM 32.4319 -80.3869 17° North 431 496 41,000  Level Jacksonville Center
Wed 10:10:57 PM 32.5458 -80.3394 19° North 431 496 41,000  Level Jacksonville Center
Wed 10:11:57 PM 32.6597 -80.2942 19° North 431 496 41,000  Level Jacksonville Center
Wed 10:12:57 PM 32.7736 -80.2489 18° North 431 496 41,000  Level Jacksonville Center
Wed 10:13:57 PM 32.8853 -80.2011 20° North 426 490 41,000  Level Jacksonville Center
Wed 10:14:57 PM 33.0219 -80.1500 17° North 442 509 41,000  Level Jacksonville Center
Wed 10:15:57 PM 33.1294 -80.1044 20° North 435 501 41,000  Level Jacksonville Center
Wed 10:16:57 PM 33.2494 -80.0586 18° North 435 501 41,000  Level Jacksonville Center
Wed 10:17:57 PM 33.3611 -80.0128 19° North 435 501 41,000  Level Jacksonville Center
Wed 10:18:57 PM 33.4728 -79.9669 19° North 429 494 41,000  Level Jacksonville Center
Wed 10:19:57 PM 33.5867 -79.9231 18° North 429 494 41,000  Level Jacksonville Center
Wed 10:20:57 PM 33.6981 -79.8769 19° North 424 488 41,000  Level Jacksonville Center
Wed 10:21:57 PM 33.8139 -79.8306 18° North 424 488 41,000  Level Jacksonville Center
Wed 10:22:57 PM 33.9275 -79.7842 19° North 424 488 41,000  Level Jacksonville Center
Wed 10:23:57 PM 34.0411 -79.7375 19° North 424 488 41,000  Level Jacksonville Center
Wed 10:25:58 PM 34.2511 -79.6469 20° North 413 475 41,000  Level Washington Center
Wed 10:26:59 PM 34.3594 -79.5944 22° Northeast 418 481 41,000  Level Washington Center
Wed 10:27:59 PM 34.4678 -79.5342 25° Northeast 418 481 41,000  Level Washington Center
Wed 10:29:00 PM 34.5761 -79.4789 23° Northeast 418 481 41,000  Level Washington Center
Wed 10:29:58 PM 34.6822 -79.4208 24° Northeast 418 481 41,000  Level Washington Center
Wed 10:30:59 PM 34.7903 -79.3653 23° Northeast 418 481 41,000  Level Washington Center
Wed 10:32:00 PM 34.8986 -79.3094 23° Northeast 418 481 41,000  Level Washington Center
Wed 10:33:00 PM 35.0047 -79.2536 23° Northeast 418 481 41,000  Level Washington Center
Wed 10:34:00 PM 35.1086 -79.1972 24° Northeast 418 481 41,000  Level Washington Center
Wed 10:34:59 PM 35.2144 -79.1436 22° Northeast 413 475 41,000  Level Washington Center
Wed 10:36:00 PM 35.3206 -79.0872 23° Northeast 413 475 41,000  Level Washington Center
Wed 10:36:58 PM 35.4286 -79.0281 24° Northeast 413 475 41,000  Level Washington Center
Wed 10:37:59 PM 35.5367 -78.9714 23° Northeast 413 475 41,000  Level Washington Center
Wed 10:39:00 PM 35.6425 -78.9147 24° Northeast 413 475 41,000  Level Washington Center
Wed 10:39:58 PM 35.7528 -78.8553 24° Northeast 418 481 41,000  Level Washington Center
Wed 10:40:58 PM 35.8586 -78.7956 25° Northeast 418 481 41,000  Level Washington Center
Wed 10:41:59 PM 35.9567 -78.7175 33° Northeast 418 481 41,000  Level Washington Center
Wed 10:43:00 PM 36.0486 -78.6336 36° Northeast 413 475 41,000  Level Washington Center
Wed 10:43:58 PM 36.1425 -78.5500 36° Northeast 413 475 41,000  Level Washington Center
Wed 10:44:58 PM 36.2406 -78.4686 34° Northeast 413 475 41,000  Level Washington Center
Wed 10:45:59 PM 36.3322 -78.3842 37° Northeast 413 475 41,000  Level Washington Center
Wed 10:46:59 PM 36.4281 -78.2972 36° Northeast 418 481 41,000  Level Washington Center
Wed 10:48:00 PM 36.5239 -78.2153 34° Northeast 418 481 41,000  Level Washington Center
Wed 10:49:00 PM 36.6133 -78.1306 37° Northeast 418 481 41,000  Level Washington Center
Wed 10:49:59 PM 36.7175 -78.0328 37° Northeast 419 482 41,000  Level Washington Center
Wed 10:50:59 PM 36.8150 -77.9503 34° Northeast 419 482 41,000  Level Washington Center
Wed 10:52:00 PM 36.9086 -77.8622 37° Northeast 419 482 41,000  Level Washington Center
Wed 10:53:00 PM 37.0042 -77.7792 35° Northeast 419 482 41,000  Level Washington Center
Wed 10:53:58 PM 37.1039 -77.6856 37° Northeast 419 482 41,000  Level Washington Center
Wed 10:54:58 PM 37.1969 -77.5969 37° Northeast 419 482 41,000  Level Washington Center
Wed 10:55:58 PM 37.2944 -77.5081 36° Northeast 419 482 41,000  Level Washington Center
Wed 10:56:58 PM 37.3897 -77.4189 37° Northeast 419 482 41,000  Level Washington Center
Wed 10:58:00 PM 37.4850 -77.3297 37° Northeast 419 482 41,000  Level Washington Center
Wed 10:59:00 PM 37.5822 -77.2375 37° Northeast 419 482 41,000  Level Washington Center
Wed 11:00:00 PM 37.6583 -77.1606 39° Northeast 419 482 41,000  Level Washington Center
Wed 11:01:00 PM 37.7597 -77.0600 38° Northeast 419 482 41,000  Level Washington Center
Wed 11:01:57 PM 37.8672 -76.9569 37° Northeast 419 482 41,000  Level Washington Center
Wed 11:02:59 PM 37.9664 -76.8639 36° Northeast 427 491 41,000  Level Washington Center
Wed 11:03:59 PM 38.0611 -76.7706 38° Northeast 432 497 41,000  Level Washington Center
Wed 11:05:00 PM 38.1578 -76.6744 38° Northeast 437 503 41,000  Level Washington Center
Wed 11:05:58 PM 38.2525 -76.5833 37° Northeast 437 503 41,000  Level Washington Center
Wed 11:06:59 PM 38.3472 -76.4892 38° Northeast 437 503 41,000  Level Washington Center
Wed 11:08:00 PM 38.4436 -76.3950 37° Northeast 437 503 41,000  Level Washington Center
Wed 11:08:59 PM 38.5403 -76.3003 37° Northeast 437 503 41,000  Level Washington Center
Wed 11:10:00 PM 38.6367 -76.2031 38° Northeast 437 503 41,000  Level Washington Center
Wed 11:11:00 PM 38.7286 -76.1133 37° Northeast 447 514 41,000  Level Washington Center
Wed 11:11:58 PM 38.8250 -76.0206 37° Northeast 447 514 41,000  Level Washington Center
Wed 11:12:58 PM 38.9233 -75.9253 37° Northeast 442 509 41,000  Level Washington Center
Wed 11:13:59 PM 39.0194 -75.8242 39° Northeast 442 509 41,000  Level Washington Center
Wed 11:15:00 PM 39.1153 -75.7281 38° Northeast 442 509 41,000  Level Washington Center
Wed 11:16:00 PM 39.2156 -75.6292 37° Northeast 442 509 41,000  Level Washington Center
Wed 11:16:58 PM 39.3133 -75.5272 39° Northeast 442 509 41,000  Level Washington Center
Wed 11:17:58 PM 39.4114 -75.4278 38° Northeast 442 509 41,000  Level Washington Center
Wed 11:18:59 PM 39.5111 -75.3253 38° Northeast 442 509 41,000  Level Washington Center
Wed 11:20:00 PM 39.6067 -75.2281 38° Northeast 442 509 41,000  Level Washington Center
Wed 11:20:59 PM 39.7106 -75.1114 41° Northeast 442 509 41,000  Level Washington Center
Wed 11:23:07 PM 39.9075 -74.9086 38° Northeast 455 524 41,000  Level New York Center
Wed 11:24:05 PM 40.0136 -74.7931 40° Northeast 450 518 41,000 -154 Level New York Center
Wed 11:25:04 PM 40.1092 -74.6789 42° Northeast 450 518 40,700 -650 Descending New York Center
Wed 11:26:05 PM 40.2006 -74.5672 43° Northeast 450 518 39,700 -2,127 Descending New York Center
Wed 11:28:13 PM 40.3964 -74.3256 43° Northeast 437 503 34,000 -2,585 Descending Boston Center
Wed 11:29:13 PM 40.4878 -74.2192 42° Northeast 437 503 31,600 -2,350 Descending Boston Center
Wed 11:30:13 PM 40.5769 -74.1150 42° Northeast 430 495 29,300 -2,300 Descending Boston Center
Wed 11:31:13 PM 40.6617 -74.0186 41° Northeast 417 480 27,000 -2,200 Descending Boston Center
Wed 11:32:13 PM 40.7442 -73.9222 42° Northeast 405 466 24,900 -1,500 Descending Boston Center
Wed 11:33:13 PM 40.8225 -73.8306 42° Northeast 390 449 24,000 -450 Descending Boston Center
Wed 11:34:13 PM 40.9031 -73.7308 43° Northeast 385 443 24,000  Level Boston Center
Wed 11:35:13 PM 40.9811 -73.6250 46° Northeast 390 449 24,000 -500 Level Boston Center
Wed 11:36:13 PM 41.0633 -73.5331 40° Northeast 390 449 23,000 -500 Descending Boston Center
Wed 11:37:13 PM 41.1350 -73.4461 42° Northeast 390 449 23,000 -400 Level Boston Center
Wed 11:38:13 PM 41.2275 -73.3728 31° Northeast 390 449 22,200 -850 Descending Boston Center
Wed 11:39:13 PM 41.3236 -73.3247 21° North 385 443 21,300 -1,000 Descending Boston Center
Wed 11:40:13 PM 41.4172 -73.3592 345° North 340 391 20,200 -1,050 Descending Boston Center
Wed 11:41:13 PM 41.5106 -73.3881 347° North 334 384 19,200 -1,045 Descending Boston Center
Wed 11:42:25 PM 41.6228 -73.4286 345° North 322 371 17,900 -955 Descending Boston Center
Wed 11:43:25 PM 41.7103 -73.4383 355° North 322 371 17,100 -900 Descending Boston Center
Wed 11:44:25 PM 41.8019 -73.4342 North 316 364 16,100 -1,000 Descending Boston Center
Wed 11:45:25 PM 41.8811 -73.4411 356° North 311 358 15,100 -1,550 Descending Boston Center
Wed 11:46:25 PM 41.9728 -73.4508 355° North 306 352 13,000 -1,550 Descending Boston Center
Wed 11:47:25 PM 42.0478 -73.4578 356° North 306 352 12,000 -500 Descending Boston Center
Wed 11:48:25 PM 42.1331 -73.4647 357° North 289 333 12,000 -400 Level Boston Center
Wed 11:49:25 PM 42.2122 -73.4661 359° North 284 327 11,200 -779 Descending Boston Center
Wed 11:49:42 PM 42.2333 -73.4664 359° North 283 326 11,000 -200 Descending Boston Center
Wed 11:50:25 PM 42.2831 -73.4953 337° Northwest 277 319 11,000 -200 Level Boston Center
Wed 11:50:42 PM 42.3036 -73.5039 343° North 266 306 10,800 -1,538 Descending Boston Center
Wed 11:51:43 PM 42.3700 -73.5472 334° Northwest 268 308 9,000 -1,574 Descending Boston Center
Wed 11:52:44 PM 42.4361 -73.5992 330° Northwest 257 296 7,600 -1,438 Descending Boston Center
Wed 11:53:44 PM 42.5025 -73.6256 344° North 250 288 6,100 -1,240 Descending Boston Center
Wed 11:54:45 PM 42.5669 -73.6439 348° North 244 281 5,100 -984 Descending Boston Center
Wed 11:55:46 PM 42.6336 -73.6647 347° North 236 272 4,100 -496 Descending Boston Center
Wed 11:56:46 PM 42.6958 -73.6858 346° North 230 265 4,100 -50 Level Boston Center
Wed 11:57:47 PM 42.7519 -73.7011 349° North 193 222 4,000 -248 Descending Boston Center
Wed 11:58:47 PM 42.8019 -73.7050 357° North 157 181 3,600 -397 Descending Boston Center
Wed 11:59:48 PM 42.8414 -73.7172 347° North 135 155 3,200 -522 Descending Boston Center
Thu 12:00:42 AM 42.8556 -73.7572 296° West 131 151 2,600 -667 Descending Boston Center

Login

Don't have an account? Register now (free) for customized features, flight alerts, and more!